sensor_id;sensor_type;location;lat;lon;timestamp;temperature;humidity
16871;DHT22;8552;48.120;-1.456;2023-05-07T00:00:04;13.50;99.90
16871;DHT22;8552;48.120;-1.456;2023-05-07T00:02:33;13.50;99.90
16871;DHT22;8552;48.120;-1.456;2023-05-07T00:04:59;13.60;99.90
16871;DHT22;8552;48.120;-1.456;2023-05-07T00:07:24;13.60;99.90
16871;DHT22;8552;48.120;-1.456;2023-05-07T00:09:50;13.60;99.90
16871;DHT22;8552;48.120;-1.456;2023-05-07T00:12:16;13.60;99.90
16871;DHT22;8552;48.120;-1.456;2023-05-07T00:14:41;13.60;99.90
16871;DHT22;8552;48.120;-1.456;2023-05-07T00:17:07;13.60;99.90
16871;DHT22;8552;48.120;-1.456;2023-05-07T00:19:33;13.50;99.90
16871;DHT22;8552;48.120;-1.456;2023-05-07T00:21:58;13.60;99.90
16871;DHT22;8552;48.120;-1.456;2023-05-07T00:24:24;13.50;99.90
16871;DHT22;8552;48.120;-1.456;2023-05-07T00:26:50;13.50;99.90
16871;DHT22;8552;48.120;-1.456;2023-05-07T00:29:16;13.50;99.90
16871;DHT22;8552;48.120;-1.456;2023-05-07T00:31:42;13.50;99.90
16871;DHT22;8552;48.120;-1.456;2023-05-07T00:34:07;13.50;99.90
16871;DHT22;8552;48.120;-1.456;2023-05-07T00:36:33;13.40;99.90
16871;DHT22;8552;48.120;-1.456;2023-05-07T00:39:00;13.40;99.90
16871;DHT22;8552;48.120;-1.456;2023-05-07T00:41:26;13.40;99.90
16871;DHT22;8552;48.120;-1.456;2023-05-07T00:43:52;13.40;99.90
16871;DHT22;8552;48.120;-1.456;2023-05-07T00:46:20;13.40;99.90
16871;DHT22;8552;48.120;-1.456;2023-05-07T00:48:47;13.40;99.90
16871;DHT22;8552;48.120;-1.456;2023-05-07T00:51:13;13.50;99.90
16871;DHT22;8552;48.120;-1.456;2023-05-07T00:53:39;13.50;99.90
16871;DHT22;8552;48.120;-1.456;2023-05-07T00:56:06;13.50;99.90
16871;DHT22;8552;48.120;-1.456;2023-05-07T00:58:32;13.50;99.90
16871;DHT22;8552;48.120;-1.456;2023-05-07T01:00:59;13.50;99.90
16871;DHT22;8552;48.120;-1.456;2023-05-07T01:03:24;13.50;99.90
16871;DHT22;8552;48.120;-1.456;2023-05-07T01:05:52;13.50;99.90
16871;DHT22;8552;48.120;-1.456;2023-05-07T01:08:20;13.50;99.90
16871;DHT22;8552;48.120;-1.456;2023-05-07T01:10:46;13.50;99.90
16871;DHT22;8552;48.120;-1.456;2023-05-07T01:13:13;13.50;99.90
16871;DHT22;8552;48.120;-1.456;2023-05-07T01:15:39;13.40;99.90
16871;DHT22;8552;48.120;-1.456;2023-05-07T01:18:06;13.50;99.90
16871;DHT22;8552;48.120;-1.456;2023-05-07T01:20:32;13.60;99.90
16871;DHT22;8552;48.120;-1.456;2023-05-07T01:22:59;13.60;99.90
16871;DHT22;8552;48.120;-1.456;2023-05-07T01:25:25;13.60;99.90
16871;DHT22;8552;48.120;-1.456;2023-05-07T01:27:51;13.50;99.90
16871;DHT22;8552;48.120;-1.456;2023-05-07T01:30:18;13.50;99.90
16871;DHT22;8552;48.120;-1.456;2023-05-07T01:32:57;13.50;99.90
16871;DHT22;8552;48.120;-1.456;2023-05-07T01:35:39;13.60;99.90
16871;DHT22;8552;48.120;-1.456;2023-05-07T01:38:06;13.60;99.90
16871;DHT22;8552;48.120;-1.456;2023-05-07T01:40:33;13.60;99.90
16871;DHT22;8552;48.120;-1.456;2023-05-07T01:43:02;13.50;99.90
16871;DHT22;8552;48.120;-1.456;2023-05-07T01:45:30;13.50;99.90
16871;DHT22;8552;48.120;-1.456;2023-05-07T01:47:55;13.50;99.90
16871;DHT22;8552;48.120;-1.456;2023-05-07T01:50:21;13.40;99.90
16871;DHT22;8552;48.120;-1.456;2023-05-07T01:52:50;13.30;99.90
16871;DHT22;8552;48.120;-1.456;2023-05-07T01:55:16;13.30;99.90
16871;DHT22;8552;48.120;-1.456;2023-05-07T01:57:42;13.20;99.90
16871;DHT22;8552;48.120;-1.456;2023-05-07T02:00:08;13.20;99.90
16871;DHT22;8552;48.120;-1.456;2023-05-07T02:02:34;13.10;99.90
16871;DHT22;8552;48.120;-1.456;2023-05-07T02:05:00;13.00;99.90
16871;DHT22;8552;48.120;-1.456;2023-05-07T02:07:27;13.00;99.90
16871;DHT22;8552;48.120;-1.456;2023-05-07T02:09:53;13.00;99.90
16871;DHT22;8552;48.120;-1.456;2023-05-07T02:12:21;13.00;99.90
16871;DHT22;8552;48.120;-1.456;2023-05-07T02:14:46;12.90;99.90
16871;DHT22;8552;48.120;-1.456;2023-05-07T02:17:12;12.90;99.90
16871;DHT22;8552;48.120;-1.456;2023-05-07T02:19:38;12.80;99.90
16871;DHT22;8552;48.120;-1.456;2023-05-07T02:22:03;12.80;99.90
16871;DHT22;8552;48.120;-1.456;2023-05-07T02:24:29;12.70;99.90
16871;DHT22;8552;48.120;-1.456;2023-05-07T02:26:55;12.70;99.90
16871;DHT22;8552;48.120;-1.456;2023-05-07T02:29:21;12.60;99.90
16871;DHT22;8552;48.120;-1.456;2023-05-07T02:31:46;12.60;99.90
16871;DHT22;8552;48.120;-1.456;2023-05-07T02:34:16;12.60;99.90
16871;DHT22;8552;48.120;-1.456;2023-05-07T02:36:42;12.60;99.90
16871;DHT22;8552;48.120;-1.456;2023-05-07T02:39:08;12.60;99.90
16871;DHT22;8552;48.120;-1.456;2023-05-07T02:41:34;12.60;99.90
16871;DHT22;8552;48.120;-1.456;2023-05-07T02:43:59;12.60;99.90
16871;DHT22;8552;48.120;-1.456;2023-05-07T02:46:25;12.60;99.90
16871;DHT22;8552;48.120;-1.456;2023-05-07T02:48:51;12.60;99.90
16871;DHT22;8552;48.120;-1.456;2023-05-07T02:51:20;12.60;99.90
16871;DHT22;8552;48.120;-1.456;2023-05-07T02:53:46;12.60;99.90
16871;DHT22;8552;48.120;-1.456;2023-05-07T02:56:12;12.60;99.90
16871;DHT22;8552;48.120;-1.456;2023-05-07T02:58:38;12.60;99.90
16871;DHT22;8552;48.120;-1.456;2023-05-07T03:01:08;12.70;99.90
16871;DHT22;8552;48.120;-1.456;2023-05-07T03:03:34;12.70;99.90
16871;DHT22;8552;48.120;-1.456;2023-05-07T03:06:00;12.80;99.90
16871;DHT22;8552;48.120;-1.456;2023-05-07T03:08:26;12.80;99.90
16871;DHT22;8552;48.120;-1.456;2023-05-07T03:10:52;12.80;99.90
16871;DHT22;8552;48.120;-1.456;2023-05-07T03:13:17;12.90;99.90
16871;DHT22;8552;48.120;-1.456;2023-05-07T03:15:43;12.90;99.90
16871;DHT22;8552;48.120;-1.456;2023-05-07T03:18:09;13.00;99.90
16871;DHT22;8552;48.120;-1.456;2023-05-07T03:20:35;13.00;99.90
16871;DHT22;8552;48.120;-1.456;2023-05-07T03:23:02;13.00;99.90
16871;DHT22;8552;48.120;-1.456;2023-05-07T03:25:28;13.10;99.90
16871;DHT22;8552;48.120;-1.456;2023-05-07T03:27:55;13.10;99.90
16871;DHT22;8552;48.120;-1.456;2023-05-07T03:30:21;13.10;99.90
16871;DHT22;8552;48.120;-1.456;2023-05-07T03:32:47;13.20;99.90
16871;DHT22;8552;48.120;-1.456;2023-05-07T03:35:12;13.20;99.90
16871;DHT22;8552;48.120;-1.456;2023-05-07T03:37:39;13.20;99.90
16871;DHT22;8552;48.120;-1.456;2023-05-07T03:40:05;13.30;99.90
16871;DHT22;8552;48.120;-1.456;2023-05-07T03:42:31;13.30;99.90
16871;DHT22;8552;48.120;-1.456;2023-05-07T03:44:57;13.30;99.90
16871;DHT22;8552;48.120;-1.456;2023-05-07T03:47:22;13.40;99.90
16871;DHT22;8552;48.120;-1.456;2023-05-07T03:49:48;13.40;99.90
16871;DHT22;8552;48.120;-1.456;2023-05-07T03:52:15;13.40;99.90
16871;DHT22;8552;48.120;-1.456;2023-05-07T03:54:41;13.40;99.90
16871;DHT22;8552;48.120;-1.456;2023-05-07T03:57:07;13.40;99.90
16871;DHT22;8552;48.120;-1.456;2023-05-07T03:59:32;13.40;99.90
16871;DHT22;8552;48.120;-1.456;2023-05-07T04:01:58;13.50;99.90
16871;DHT22;8552;48.120;-1.456;2023-05-07T04:04:24;13.50;99.90
16871;DHT22;8552;48.120;-1.456;2023-05-07T04:06:49;13.50;99.90
16871;DHT22;8552;48.120;-1.456;2023-05-07T04:09:15;13.50;99.90
16871;DHT22;8552;48.120;-1.456;2023-05-07T04:11:40;13.50;99.90
16871;DHT22;8552;48.120;-1.456;2023-05-07T04:14:06;13.50;99.90
16871;DHT22;8552;48.120;-1.456;2023-05-07T04:16:32;13.60;99.90
16871;DHT22;8552;48.120;-1.456;2023-05-07T04:18:58;13.60;99.90
16871;DHT22;8552;48.120;-1.456;2023-05-07T04:21:23;13.60;99.90
16871;DHT22;8552;48.120;-1.456;2023-05-07T04:23:49;13.60;99.90
16871;DHT22;8552;48.120;-1.456;2023-05-07T04:26:15;13.60;99.90
16871;DHT22;8552;48.120;-1.456;2023-05-07T04:28:41;13.60;99.90
16871;DHT22;8552;48.120;-1.456;2023-05-07T04:31:07;13.70;99.90
16871;DHT22;8552;48.120;-1.456;2023-05-07T04:33:33;13.70;99.90
16871;DHT22;8552;48.120;-1.456;2023-05-07T04:36:01;13.70;99.90
16871;DHT22;8552;48.120;-1.456;2023-05-07T04:38:31;13.70;99.90
16871;DHT22;8552;48.120;-1.456;2023-05-07T04:40:58;13.70;99.90
16871;DHT22;8552;48.120;-1.456;2023-05-07T04:43:24;13.70;99.90
16871;DHT22;8552;48.120;-1.456;2023-05-07T04:45:51;13.70;99.90
16871;DHT22;8552;48.120;-1.456;2023-05-07T04:48:17;13.80;99.90
16871;DHT22;8552;48.120;-1.456;2023-05-07T04:50:46;13.80;99.90
16871;DHT22;8552;48.120;-1.456;2023-05-07T04:53:12;13.80;99.90
16871;DHT22;8552;48.120;-1.456;2023-05-07T04:55:38;13.80;99.90
16871;DHT22;8552;48.120;-1.456;2023-05-07T04:58:04;13.80;99.90
16871;DHT22;8552;48.120;-1.456;2023-05-07T05:00:30;13.80;99.90
16871;DHT22;8552;48.120;-1.456;2023-05-07T05:02:56;13.80;99.90
16871;DHT22;8552;48.120;-1.456;2023-05-07T05:05:21;13.80;99.90
16871;DHT22;8552;48.120;-1.456;2023-05-07T05:07:47;13.80;99.90
16871;DHT22;8552;48.120;-1.456;2023-05-07T05:10:13;13.90;99.90
16871;DHT22;8552;48.120;-1.456;2023-05-07T05:12:38;13.90;99.90
16871;DHT22;8552;48.120;-1.456;2023-05-07T05:15:05;13.90;99.90
16871;DHT22;8552;48.120;-1.456;2023-05-07T05:17:30;13.90;99.90
16871;DHT22;8552;48.120;-1.456;2023-05-07T05:19:56;13.90;99.90
16871;DHT22;8552;48.120;-1.456;2023-05-07T05:22:22;13.90;99.90
16871;DHT22;8552;48.120;-1.456;2023-05-07T05:24:47;13.90;99.90
16871;DHT22;8552;48.120;-1.456;2023-05-07T05:27:13;13.90;99.90
16871;DHT22;8552;48.120;-1.456;2023-05-07T05:29:39;13.90;99.90
16871;DHT22;8552;48.120;-1.456;2023-05-07T05:32:04;13.90;99.90
16871;DHT22;8552;48.120;-1.456;2023-05-07T05:34:30;14.00;99.90
16871;DHT22;8552;48.120;-1.456;2023-05-07T05:36:56;14.00;99.90
16871;DHT22;8552;48.120;-1.456;2023-05-07T05:39:22;14.00;99.90
16871;DHT22;8552;48.120;-1.456;2023-05-07T05:41:48;14.00;99.90
16871;DHT22;8552;48.120;-1.456;2023-05-07T05:44:14;14.00;99.90
16871;DHT22;8552;48.120;-1.456;2023-05-07T05:46:39;14.00;99.90
16871;DHT22;8552;48.120;-1.456;2023-05-07T05:49:05;14.00;99.90
16871;DHT22;8552;48.120;-1.456;2023-05-07T05:51:31;14.10;99.90
16871;DHT22;8552;48.120;-1.456;2023-05-07T05:53:57;14.00;99.90
16871;DHT22;8552;48.120;-1.456;2023-05-07T05:56:22;14.10;99.90
16871;DHT22;8552;48.120;-1.456;2023-05-07T05:58:48;14.10;99.90
16871;DHT22;8552;48.120;-1.456;2023-05-07T06:01:13;14.10;99.90
16871;DHT22;8552;48.120;-1.456;2023-05-07T06:03:39;14.20;99.90
16871;DHT22;8552;48.120;-1.456;2023-05-07T06:06:05;14.20;99.90
16871;DHT22;8552;48.120;-1.456;2023-05-07T06:08:31;14.20;99.90
16871;DHT22;8552;48.120;-1.456;2023-05-07T06:10:57;14.20;99.90
16871;DHT22;8552;48.120;-1.456;2023-05-07T06:13:23;14.30;99.90
16871;DHT22;8552;48.120;-1.456;2023-05-07T06:15:49;14.30;99.90
16871;DHT22;8552;48.120;-1.456;2023-05-07T06:18:15;14.30;99.90
16871;DHT22;8552;48.120;-1.456;2023-05-07T06:20:40;14.40;99.90
16871;DHT22;8552;48.120;-1.456;2023-05-07T06:23:06;14.40;99.90
16871;DHT22;8552;48.120;-1.456;2023-05-07T06:25:32;14.40;99.90
16871;DHT22;8552;48.120;-1.456;2023-05-07T06:27:57;14.40;99.90
16871;DHT22;8552;48.120;-1.456;2023-05-07T06:30:23;14.40;99.90
16871;DHT22;8552;48.120;-1.456;2023-05-07T06:32:49;14.40;99.90
16871;DHT22;8552;48.120;-1.456;2023-05-07T06:35:14;14.50;99.90
16871;DHT22;8552;48.120;-1.456;2023-05-07T06:37:41;14.50;99.90
16871;DHT22;8552;48.120;-1.456;2023-05-07T06:40:08;14.50;99.90
16871;DHT22;8552;48.120;-1.456;2023-05-07T06:42:35;14.50;99.90
16871;DHT22;8552;48.120;-1.456;2023-05-07T06:45:01;14.50;99.90
16871;DHT22;8552;48.120;-1.456;2023-05-07T06:47:28;14.50;99.90
16871;DHT22;8552;48.120;-1.456;2023-05-07T06:49:53;14.50;99.90
16871;DHT22;8552;48.120;-1.456;2023-05-07T06:52:19;14.50;99.90
16871;DHT22;8552;48.120;-1.456;2023-05-07T06:54:45;14.50;99.90
16871;DHT22;8552;48.120;-1.456;2023-05-07T06:57:10;14.50;99.90
16871;DHT22;8552;48.120;-1.456;2023-05-07T06:59:36;14.60;99.90
16871;DHT22;8552;48.120;-1.456;2023-05-07T07:02:02;14.50;99.90
16871;DHT22;8552;48.120;-1.456;2023-05-07T07:04:27;14.50;99.90
16871;DHT22;8552;48.120;-1.456;2023-05-07T07:06:54;14.50;99.90
16871;DHT22;8552;48.120;-1.456;2023-05-07T07:09:20;14.50;99.90
16871;DHT22;8552;48.120;-1.456;2023-05-07T07:11:45;14.60;99.90
16871;DHT22;8552;48.120;-1.456;2023-05-07T07:14:11;14.50;99.90
16871;DHT22;8552;48.120;-1.456;2023-05-07T07:16:36;14.50;99.90
16871;DHT22;8552;48.120;-1.456;2023-05-07T07:19:02;14.60;99.90
16871;DHT22;8552;48.120;-1.456;2023-05-07T07:21:28;14.60;99.90
16871;DHT22;8552;48.120;-1.456;2023-05-07T07:23:53;14.60;99.90
16871;DHT22;8552;48.120;-1.456;2023-05-07T07:26:19;14.70;99.90
16871;DHT22;8552;48.120;-1.456;2023-05-07T07:28:45;14.70;99.90
16871;DHT22;8552;48.120;-1.456;2023-05-07T07:31:11;14.70;99.90
16871;DHT22;8552;48.120;-1.456;2023-05-07T07:33:37;14.70;99.90
16871;DHT22;8552;48.120;-1.456;2023-05-07T07:36:04;14.70;99.90
16871;DHT22;8552;48.120;-1.456;2023-05-07T07:38:30;14.70;99.90
16871;DHT22;8552;48.120;-1.456;2023-05-07T07:40:56;14.70;99.90
16871;DHT22;8552;48.120;-1.456;2023-05-07T07:43:21;14.80;99.90
16871;DHT22;8552;48.120;-1.456;2023-05-07T07:45:47;14.80;99.90
16871;DHT22;8552;48.120;-1.456;2023-05-07T07:48:13;14.80;99.90
16871;DHT22;8552;48.120;-1.456;2023-05-07T07:50:38;14.90;99.90
16871;DHT22;8552;48.120;-1.456;2023-05-07T07:53:04;14.90;99.90
16871;DHT22;8552;48.120;-1.456;2023-05-07T07:55:30;15.00;99.90
16871;DHT22;8552;48.120;-1.456;2023-05-07T07:57:56;15.00;99.90
16871;DHT22;8552;48.120;-1.456;2023-05-07T08:00:22;15.10;99.90
16871;DHT22;8552;48.120;-1.456;2023-05-07T08:02:48;15.10;99.90
16871;DHT22;8552;48.120;-1.456;2023-05-07T08:05:14;15.20;99.90
16871;DHT22;8552;48.120;-1.456;2023-05-07T08:07:40;15.30;99.90
16871;DHT22;8552;48.120;-1.456;2023-05-07T08:10:06;15.50;99.90
16871;DHT22;8552;48.120;-1.456;2023-05-07T08:12:32;15.60;99.90
16871;DHT22;8552;48.120;-1.456;2023-05-07T08:14:58;15.50;99.90
16871;DHT22;8552;48.120;-1.456;2023-05-07T08:17:24;15.40;99.90
16871;DHT22;8552;48.120;-1.456;2023-05-07T08:19:49;15.60;99.90
16871;DHT22;8552;48.120;-1.456;2023-05-07T08:22:15;15.50;99.90
16871;DHT22;8552;48.120;-1.456;2023-05-07T08:24:43;15.60;99.90
16871;DHT22;8552;48.120;-1.456;2023-05-07T08:27:08;15.50;99.90
16871;DHT22;8552;48.120;-1.456;2023-05-07T08:29:34;15.40;99.90
16871;DHT22;8552;48.120;-1.456;2023-05-07T08:32:00;15.40;99.90
16871;DHT22;8552;48.120;-1.456;2023-05-07T08:34:25;15.60;99.90
16871;DHT22;8552;48.120;-1.456;2023-05-07T08:36:51;15.70;99.90
16871;DHT22;8552;48.120;-1.456;2023-05-07T08:39:17;15.90;99.90
16871;DHT22;8552;48.120;-1.456;2023-05-07T08:41:44;16.10;99.90
16871;DHT22;8552;48.120;-1.456;2023-05-07T08:44:12;16.20;99.90
16871;DHT22;8552;48.120;-1.456;2023-05-07T08:46:39;16.20;99.90
16871;DHT22;8552;48.120;-1.456;2023-05-07T08:49:07;16.20;99.90
16871;DHT22;8552;48.120;-1.456;2023-05-07T08:51:33;16.00;99.90
16871;DHT22;8552;48.120;-1.456;2023-05-07T08:53:59;16.00;99.90
16871;DHT22;8552;48.120;-1.456;2023-05-07T08:56:26;16.10;99.90
16871;DHT22;8552;48.120;-1.456;2023-05-07T08:58:52;16.20;99.90
16871;DHT22;8552;48.120;-1.456;2023-05-07T09:01:22;16.40;99.90
16871;DHT22;8552;48.120;-1.456;2023-05-07T09:03:49;16.60;99.90
16871;DHT22;8552;48.120;-1.456;2023-05-07T09:06:15;16.60;99.90
16871;DHT22;8552;48.120;-1.456;2023-05-07T09:08:41;16.70;99.90
16871;DHT22;8552;48.120;-1.456;2023-05-07T09:11:09;16.80;99.90
16871;DHT22;8552;48.120;-1.456;2023-05-07T09:13:35;17.00;99.90
16871;DHT22;8552;48.120;-1.456;2023-05-07T09:16:12;17.00;99.90
16871;DHT22;8552;48.120;-1.456;2023-05-07T09:18:42;17.10;99.90
16871;DHT22;8552;48.120;-1.456;2023-05-07T09:21:14;17.10;99.90
16871;DHT22;8552;48.120;-1.456;2023-05-07T09:23:41;17.40;99.90
16871;DHT22;8552;48.120;-1.456;2023-05-07T09:26:07;17.60;99.90
16871;DHT22;8552;48.120;-1.456;2023-05-07T09:28:43;17.70;99.90
16871;DHT22;8552;48.120;-1.456;2023-05-07T09:31:09;17.70;99.90
16871;DHT22;8552;48.120;-1.456;2023-05-07T09:33:35;17.80;99.90
16871;DHT22;8552;48.120;-1.456;2023-05-07T09:36:08;17.80;99.90
16871;DHT22;8552;48.120;-1.456;2023-05-07T09:38:36;17.70;99.90
16871;DHT22;8552;48.120;-1.456;2023-05-07T09:41:12;17.70;99.90
16871;DHT22;8552;48.120;-1.456;2023-05-07T09:43:39;17.70;99.90
16871;DHT22;8552;48.120;-1.456;2023-05-07T09:46:13;18.00;99.90
16871;DHT22;8552;48.120;-1.456;2023-05-07T09:48:42;18.10;99.90
16871;DHT22;8552;48.120;-1.456;2023-05-07T09:51:29;18.20;99.90
16871;DHT22;8552;48.120;-1.456;2023-05-07T09:53:56;18.50;99.90
16871;DHT22;8552;48.120;-1.456;2023-05-07T09:56:23;18.40;99.90
16871;DHT22;8552;48.120;-1.456;2023-05-07T09:58:49;18.60;99.90
16871;DHT22;8552;48.120;-1.456;2023-05-07T10:01:18;18.50;99.90
16871;DHT22;8552;48.120;-1.456;2023-05-07T10:03:48;18.70;99.90
16871;DHT22;8552;48.120;-1.456;2023-05-07T10:06:15;18.60;99.90
16871;DHT22;8552;48.120;-1.456;2023-05-07T10:08:43;18.70;99.90
16871;DHT22;8552;48.120;-1.456;2023-05-07T10:11:09;18.70;99.90
16871;DHT22;8552;48.120;-1.456;2023-05-07T10:13:37;18.90;99.90
16871;DHT22;8552;48.120;-1.456;2023-05-07T10:16:06;19.00;99.90
16871;DHT22;8552;48.120;-1.456;2023-05-07T10:18:32;19.30;99.90
16871;DHT22;8552;48.120;-1.456;2023-05-07T10:21:07;19.50;99.90
16871;DHT22;8552;48.120;-1.456;2023-05-07T10:23:34;19.30;99.90
16871;DHT22;8552;48.120;-1.456;2023-05-07T10:26:03;19.40;99.90
16871;DHT22;8552;48.120;-1.456;2023-05-07T10:28:30;19.60;99.90
16871;DHT22;8552;48.120;-1.456;2023-05-07T10:31:18;19.60;99.90
16871;DHT22;8552;48.120;-1.456;2023-05-07T10:33:51;19.40;99.90
16871;DHT22;8552;48.120;-1.456;2023-05-07T10:36:18;19.50;99.90
16871;DHT22;8552;48.120;-1.456;2023-05-07T10:38:45;19.60;99.90
16871;DHT22;8552;48.120;-1.456;2023-05-07T10:41:12;19.80;99.90
16871;DHT22;8552;48.120;-1.456;2023-05-07T10:43:44;19.70;99.90
16871;DHT22;8552;48.120;-1.456;2023-05-07T10:46:17;19.60;99.90
16871;DHT22;8552;48.120;-1.456;2023-05-07T10:51:31;19.80;99.90
16871;DHT22;8552;48.120;-1.456;2023-05-07T10:56:42;19.80;99.90
16871;DHT22;8552;48.120;-1.456;2023-05-07T11:02:02;19.70;99.90
16871;DHT22;8552;48.120;-1.456;2023-05-07T11:04:29;19.60;99.90
16871;DHT22;8552;48.120;-1.456;2023-05-07T11:15:14;19.70;99.90
16871;DHT22;8552;48.120;-1.456;2023-05-07T11:18:01;20.00;99.90
16871;DHT22;8552;48.120;-1.456;2023-05-07T11:20:45;20.00;99.90
16871;DHT22;8552;48.120;-1.456;2023-05-07T11:26:10;20.30;99.90
16871;DHT22;8552;48.120;-1.456;2023-05-07T11:28:42;20.40;99.90
16871;DHT22;8552;48.120;-1.456;2023-05-07T11:31:09;20.60;99.90
16871;DHT22;8552;48.120;-1.456;2023-05-07T11:33:36;20.90;99.90
16871;DHT22;8552;48.120;-1.456;2023-05-07T11:36:04;20.80;99.90
16871;DHT22;8552;48.120;-1.456;2023-05-07T11:38:30;20.60;99.90
16871;DHT22;8552;48.120;-1.456;2023-05-07T11:41:00;20.80;99.90
16871;DHT22;8552;48.120;-1.456;2023-05-07T11:43:33;21.10;99.90
16871;DHT22;8552;48.120;-1.456;2023-05-07T11:46:10;20.80;99.90
16871;DHT22;8552;48.120;-1.456;2023-05-07T11:48:37;20.60;99.90
16871;DHT22;8552;48.120;-1.456;2023-05-07T11:51:05;20.70;99.90
16871;DHT22;8552;48.120;-1.456;2023-05-07T11:53:38;20.60;99.90
16871;DHT22;8552;48.120;-1.456;2023-05-07T11:56:22;20.10;99.90
16871;DHT22;8552;48.120;-1.456;2023-05-07T11:58:51;20.20;99.90
16871;DHT22;8552;48.120;-1.456;2023-05-07T12:01:18;19.70;99.90
16871;DHT22;8552;48.120;-1.456;2023-05-07T12:03:47;19.70;99.90
16871;DHT22;8552;48.120;-1.456;2023-05-07T12:06:16;19.80;99.90
16871;DHT22;8552;48.120;-1.456;2023-05-07T12:08:43;19.90;99.90
16871;DHT22;8552;48.120;-1.456;2023-05-07T12:11:13;19.80;99.90
16871;DHT22;8552;48.120;-1.456;2023-05-07T12:13:39;19.70;99.90
16871;DHT22;8552;48.120;-1.456;2023-05-07T12:16:06;19.60;99.90
16871;DHT22;8552;48.120;-1.456;2023-05-07T12:18:33;19.70;99.90
16871;DHT22;8552;48.120;-1.456;2023-05-07T12:20:59;19.70;99.90
16871;DHT22;8552;48.120;-1.456;2023-05-07T12:23:25;19.90;99.90
16871;DHT22;8552;48.120;-1.456;2023-05-07T12:25:51;20.30;99.90
16871;DHT22;8552;48.120;-1.456;2023-05-07T12:28:18;20.40;99.90
16871;DHT22;8552;48.120;-1.456;2023-05-07T12:30:46;20.50;99.90
16871;DHT22;8552;48.120;-1.456;2023-05-07T12:33:22;20.50;99.90
16871;DHT22;8552;48.120;-1.456;2023-05-07T12:35:48;20.80;99.90
16871;DHT22;8552;48.120;-1.456;2023-05-07T12:38:15;20.60;99.90
16871;DHT22;8552;48.120;-1.456;2023-05-07T12:40:44;20.40;99.90
16871;DHT22;8552;48.120;-1.456;2023-05-07T12:43:21;20.50;99.90
16871;DHT22;8552;48.120;-1.456;2023-05-07T12:45:50;20.40;99.90
16871;DHT22;8552;48.120;-1.456;2023-05-07T12:48:16;20.50;99.90
16871;DHT22;8552;48.120;-1.456;2023-05-07T12:50:42;20.40;99.90
16871;DHT22;8552;48.120;-1.456;2023-05-07T12:53:11;20.70;99.90
16871;DHT22;8552;48.120;-1.456;2023-05-07T12:55:42;20.70;99.90
16871;DHT22;8552;48.120;-1.456;2023-05-07T12:58:08;20.80;99.90
16871;DHT22;8552;48.120;-1.456;2023-05-07T13:00:39;21.00;99.90
16871;DHT22;8552;48.120;-1.456;2023-05-07T13:03:05;20.90;99.90
16871;DHT22;8552;48.120;-1.456;2023-05-07T13:05:31;20.80;99.90
16871;DHT22;8552;48.120;-1.456;2023-05-07T13:07:57;20.80;99.90
16871;DHT22;8552;48.120;-1.456;2023-05-07T13:10:24;21.00;99.90
16871;DHT22;8552;48.120;-1.456;2023-05-07T13:12:50;21.20;99.90
16871;DHT22;8552;48.120;-1.456;2023-05-07T13:15:16;21.20;99.90
16871;DHT22;8552;48.120;-1.456;2023-05-07T13:17:42;21.10;99.90
16871;DHT22;8552;48.120;-1.456;2023-05-07T13:20:09;21.20;99.90
16871;DHT22;8552;48.120;-1.456;2023-05-07T13:22:36;21.70;99.90
16871;DHT22;8552;48.120;-1.456;2023-05-07T13:25:01;21.80;99.90
16871;DHT22;8552;48.120;-1.456;2023-05-07T13:27:27;22.00;99.90
16871;DHT22;8552;48.120;-1.456;2023-05-07T13:29:53;22.30;99.90
16871;DHT22;8552;48.120;-1.456;2023-05-07T13:32:18;22.30;99.90
16871;DHT22;8552;48.120;-1.456;2023-05-07T13:34:44;22.50;99.90
16871;DHT22;8552;48.120;-1.456;2023-05-07T13:37:09;22.80;99.90
16871;DHT22;8552;48.120;-1.456;2023-05-07T13:39:36;23.00;99.90
16871;DHT22;8552;48.120;-1.456;2023-05-07T13:42:02;23.50;99.90
16871;DHT22;8552;48.120;-1.456;2023-05-07T13:44:27;23.40;99.90
16871;DHT22;8552;48.120;-1.456;2023-05-07T13:46:53;23.70;99.90
16871;DHT22;8552;48.120;-1.456;2023-05-07T13:49:19;24.20;99.90
16871;DHT22;8552;48.120;-1.456;2023-05-07T13:51:44;24.30;99.90
16871;DHT22;8552;48.120;-1.456;2023-05-07T13:54:10;24.10;99.90
16871;DHT22;8552;48.120;-1.456;2023-05-07T13:56:37;24.30;99.90
16871;DHT22;8552;48.120;-1.456;2023-05-07T13:59:02;24.30;99.90
16871;DHT22;8552;48.120;-1.456;2023-05-07T14:01:28;23.90;99.90
16871;DHT22;8552;48.120;-1.456;2023-05-07T14:03:55;23.90;99.90
16871;DHT22;8552;48.120;-1.456;2023-05-07T14:06:21;24.10;99.90
16871;DHT22;8552;48.120;-1.456;2023-05-07T14:08:47;24.30;99.90
16871;DHT22;8552;48.120;-1.456;2023-05-07T14:11:12;24.20;99.90
16871;DHT22;8552;48.120;-1.456;2023-05-07T14:13:38;23.80;99.90
16871;DHT22;8552;48.120;-1.456;2023-05-07T14:16:04;23.80;99.90
16871;DHT22;8552;48.120;-1.456;2023-05-07T14:18:30;23.90;99.90
16871;DHT22;8552;48.120;-1.456;2023-05-07T14:20:56;24.30;99.90
16871;DHT22;8552;48.120;-1.456;2023-05-07T14:23:21;24.50;99.90
16871;DHT22;8552;48.120;-1.456;2023-05-07T14:25:52;24.50;99.90
16871;DHT22;8552;48.120;-1.456;2023-05-07T14:28:18;24.20;99.90
16871;DHT22;8552;48.120;-1.456;2023-05-07T14:30:44;24.00;99.90
16871;DHT22;8552;48.120;-1.456;2023-05-07T14:33:12;22.40;99.90
16871;DHT22;8552;48.120;-1.456;2023-05-07T14:35:40;23.20;99.90
16871;DHT22;8552;48.120;-1.456;2023-05-07T14:38:14;23.30;99.90
16871;DHT22;8552;48.120;-1.456;2023-05-07T14:40:44;23.30;99.90
16871;DHT22;8552;48.120;-1.456;2023-05-07T14:43:14;23.10;99.90
16871;DHT22;8552;48.120;-1.456;2023-05-07T14:45:50;23.00;99.90
16871;DHT22;8552;48.120;-1.456;2023-05-07T14:48:20;22.80;99.90
16871;DHT22;8552;48.120;-1.456;2023-05-07T14:50:50;22.60;99.90
16871;DHT22;8552;48.120;-1.456;2023-05-07T14:53:20;22.20;99.90
16871;DHT22;8552;48.120;-1.456;2023-05-07T14:55:50;21.90;99.90
16871;DHT22;8552;48.120;-1.456;2023-05-07T14:58:18;22.00;99.90
16871;DHT22;8552;48.120;-1.456;2023-05-07T15:00:48;21.90;99.90
16871;DHT22;8552;48.120;-1.456;2023-05-07T15:03:17;21.80;99.90
16871;DHT22;8552;48.120;-1.456;2023-05-07T15:05:46;21.70;99.90
16871;DHT22;8552;48.120;-1.456;2023-05-07T15:08:16;21.60;99.90
16871;DHT22;8552;48.120;-1.456;2023-05-07T15:10:42;21.70;99.90
16871;DHT22;8552;48.120;-1.456;2023-05-07T15:13:15;21.70;99.90
16871;DHT22;8552;48.120;-1.456;2023-05-07T15:15:44;21.70;99.90
16871;DHT22;8552;48.120;-1.456;2023-05-07T15:18:14;21.90;99.90
16871;DHT22;8552;48.120;-1.456;2023-05-07T15:20:43;21.60;99.90
16871;DHT22;8552;48.120;-1.456;2023-05-07T15:23:10;21.50;99.90
16871;DHT22;8552;48.120;-1.456;2023-05-07T15:25:38;21.10;99.90
16871;DHT22;8552;48.120;-1.456;2023-05-07T15:28:04;21.60;99.90
16871;DHT22;8552;48.120;-1.456;2023-05-07T15:30:32;21.30;99.90
16871;DHT22;8552;48.120;-1.456;2023-05-07T15:33:00;21.90;99.90
16871;DHT22;8552;48.120;-1.456;2023-05-07T16:02:07;21.60;99.90
16871;DHT22;8552;48.120;-1.456;2023-05-07T16:04:36;21.90;99.90
16871;DHT22;8552;48.120;-1.456;2023-05-07T16:07:03;21.60;99.90
16871;DHT22;8552;48.120;-1.456;2023-05-07T16:09:32;21.70;99.90
16871;DHT22;8552;48.120;-1.456;2023-05-07T16:12:02;21.90;99.90
16871;DHT22;8552;48.120;-1.456;2023-05-07T16:26:57;21.80;99.90